Archival Weather

Norman Y Mineta San Jose Intl

San Jose, California (KSJC)

Report from: Thursday, February 22, 2024 3:53 AM PST
Current time: Friday, June 14, 2024 6:09 AM PDT

Current weather – Weather history – Daily summaries
Weather forecast

Temperature9.4°C (48.9°F)
Wind chill8.9°C (48.1°F)
Dew point6.7°C (44.1°F)
Winds 3 kts (1.5 m/s, 3.5 mph) East-Northeast (70°)
Visibility10 mi. (16.1 km)
Clouds Sky clear
Altimeter30.22 in.Hg (1023 mB)
Relative humidity83 %
Density altitude-866 ft. (-264 m)
Sea-level pressure102.3 kPa (1023 mB, 30.22 in.Hg)
Max temp last 6 hours13.3°C (55.9°F)
Min temp last 6 hours8.3°C (46.9°F)
Remarks Fully automated report
Automated weather observing station with precipitation discriminator
Pressure falling more quickly
Flight conditions Visual Meteorological Conditions
Raw dataKSJC 221153Z AUTO 07003KT 10SM CLR 09/07 A3022 RMK AO2 SLP232 T00940067 10133 20083 58010
An error has occurred. This application may no longer respond until reloaded. Reload 🗙